Time;durP1;ratioP1;P1;durP2;ratioP2;P2;SDS_P1;SDS_P2;PMS_P1;PMS_P2;Temp;Humidity;BMP_temperature;BMP_pressure;BME280_temperature;BME280_humidity;BME280_pressure;Samples;Min_cycle;Max_cycle;Signal;HPM_P1;HPM_P2
2023/02/12 00:01:39;;;;;;;23.70;16.80;;;;;;;3.66;72.61;100476.90;108052;1256;61698;-69
2023/02/12 00:04:08;;;;;;;23.90;17.00;;;;;;;3.62;72.96;100483.50;108148;1254;61523;-70
2023/02/12 00:06:38;;;;;;;24.70;17.70;;;;;;;3.60;73.00;100485.17;108043;1255;74041;-69
2023/02/12 00:09:06;;;;;;;25.80;16.80;;;;;;;3.60;73.02;100484.77;108044;1257;73712;-69
2023/02/12 00:11:36;;;;;;;23.10;16.50;;;;;;;3.62;73.06;100486.10;107985;1254;72559;-69
2023/02/12 00:14:05;;;;;;;23.70;16.80;;;;;;;3.66;73.00;100488.14;108039;1255;61106;-69
2023/02/12 00:16:37;;;;;;;23.90;16.60;;;;;;;3.68;73.14;100485.64;108142;1257;61144;-69
2023/02/12 00:19:08;;;;;;;23.70;17.00;;;;;;;3.70;73.07;100495.02;108154;1254;74180;-69
2023/02/12 00:21:37;;;;;;;23.10;16.80;;;;;;;3.73;73.10;100491.95;108069;1254;71988;-70
2023/02/12 00:24:05;;;;;;;23.40;16.60;;;;;;;3.75;73.00;100496.05;108027;1254;71175;-69
2023/02/12 00:26:34;;;;;;;23.50;16.70;;;;;;;3.74;72.99;100492.88;107980;1254;61292;-69
2023/02/12 00:29:02;;;;;;;24.90;17.20;;;;;;;3.74;72.95;100498.33;108008;1256;59647;-68
2023/02/12 00:31:31;;;;;;;22.60;16.00;;;;;;;3.74;72.92;100504.09;107852;1257;74673;-69
2023/02/12 00:34:00;;;;;;;21.50;15.30;;;;;;;3.72;73.07;100504.67;108063;1254;72412;-69
2023/02/12 00:36:29;;;;;;;22.10;15.00;;;;;;;3.73;73.04;100505.37;108455;1254;72485;-70
2023/02/12 00:38:58;;;;;;;21.80;14.90;;;;;;;3.75;73.12;100510.96;107903;1257;61418;-69
2023/02/12 00:41:26;;;;;;;21.80;15.10;;;;;;;3.78;73.10;100512.20;107967;1256;61139;-69
2023/02/12 00:43:55;;;;;;;21.10;15.20;;;;;;;3.80;73.07;100521.88;107963;1257;74840;-69
2023/02/12 00:46:24;;;;;;;21.60;14.90;;;;;;;3.79;73.07;100530.62;108038;1257;73681;-70
2023/02/12 00:48:54;;;;;;;20.80;14.60;;;;;;;3.79;73.16;100527.20;108009;1257;73304;-71
2023/02/12 00:51:22;;;;;;;17.70;13.40;;;;;;;3.80;73.19;100527.55;107968;1255;62498;-71
2023/02/12 00:53:51;;;;;;;19.20;13.60;;;;;;;3.81;73.16;100533.98;108120;1254;61270;-71
2023/02/12 00:56:20;;;;;;;19.60;13.90;;;;;;;3.82;73.19;100536.41;108060;1254;74657;-68
2023/02/12 00:58:49;;;;;;;17.80;12.60;;;;;;;3.81;73.28;100536.24;108029;1254;73664;-69
2023/02/12 01:01:17;;;;;;;15.80;11.70;;;;;;;3.81;73.15;100538.39;107779;1254;73714;-70
2023/02/12 01:03:46;;;;;;;16.70;11.90;;;;;;;3.83;73.49;100536.77;107920;1257;61247;-69
2023/02/12 01:06:15;;;;;;;16.10;11.10;;;;;;;3.84;73.50;100543.26;108105;1255;61070;-70
2023/02/12 01:08:43;;;;;;;13.60;10.30;;;;;;;3.85;73.49;100546.30;108063;1257;75756;-70
2023/02/12 01:11:12;;;;;;;14.60;10.10;;;;;;;3.87;73.64;100551.86;108043;1254;75930;-69
2023/02/12 01:13:43;;;;;;;12.60;9.10;;;;;;;3.88;73.54;100547.27;108050;1259;73694;-69
2023/02/12 01:16:19;;;;;;;12.50;9.00;;;;;;;3.88;73.63;100556.58;107967;1257;61244;-69
2023/02/12 01:18:49;;;;;;;12.30;8.70;;;;;;;3.92;73.64;100558.38;107994;1257;61676;-69
2023/02/12 01:21:24;;;;;;;11.20;8.20;;;;;;;3.95;73.63;100562.54;107972;1254;74557;-69
2023/02/12 01:23:52;;;;;;;10.10;8.00;;;;;;;3.98;73.61;100563.70;108021;1254;71833;-70
2023/02/12 01:26:21;;;;;;;11.40;8.00;;;;;;;4.02;73.56;100571.23;108039;1254;73398;-70
2023/02/12 01:28:52;;;;;;;10.60;7.60;;;;;;;4.13;73.21;100573.12;108117;1254;62319;-70
2023/02/12 01:31:22;;;;;;;10.90;7.70;;;;;;;4.26;72.86;100576.69;108150;1254;61240;-69
2023/02/12 01:33:53;;;;;;;9.80;7.30;;;;;;;4.31;72.67;100583.09;107915;1257;74997;-69
2023/02/12 01:36:21;;;;;;;9.40;6.80;;;;;;;4.34;72.32;100590.41;107867;1256;73529;-72
2023/02/12 01:38:50;;;;;;;10.50;6.70;;;;;;;4.36;72.18;100594.96;108028;1256;73879;-70
2023/02/12 01:41:23;;;;;;;8.30;6.00;;;;;;;4.40;71.83;100607.22;107996;1254;62107;-70
2023/02/12 01:44:24;;;;;;;7.50;5.80;;;;;;;4.35;71.85;100603.36;108059;1254;61234;-69
2023/02/12 01:46:59;;;;;;;8.50;5.70;;;;;;;4.27;71.84;100611.30;107707;1254;72648;-69
2023/02/12 01:49:32;;;;;;;8.20;6.00;;;;;;;4.24;71.63;100613.67;108058;1254;72936;-72
2023/02/12 01:52:05;;;;;;;7.50;5.60;;;;;;;4.19;71.60;100627.21;108008;1254;70428;-70
2023/02/12 01:54:34;;;;;;;8.20;5.50;;;;;;;4.15;71.43;100638.95;108167;1254;61942;-69
2023/02/12 01:57:04;;;;;;;7.70;5.90;;;;;;;4.12;71.33;100634.05;107954;1256;61352;-69
2023/02/12 01:59:34;;;;;;;8.30;5.60;;;;;;;4.12;71.11;100641.49;108057;1256;75986;-71
2023/02/12 02:02:04;;;;;;;7.60;4.90;;;;;;;4.11;70.91;100647.86;107867;1254;73774;-71
2023/02/12 02:04:41;;;;;;;7.40;5.30;;;;;;;4.09;70.84;100656.23;108047;1259;73369;-73
2023/02/12 02:07:11;;;;;;;7.10;5.10;;;;;;;4.07;70.72;100659.38;108127;1254;62166;-70
2023/02/12 02:09:40;;;;;;;6.80;4.80;;;;;;;4.04;70.54;100672.52;108100;1254;61377;-70
2023/02/12 02:14:58;;;;;;;6.40;4.20;;;;;;;3.99;70.07;100674.59;107923;1254;73049;-70
2023/02/12 02:17:52;;;;;;;5.50;4.00;;;;;;;3.98;69.70;100676.93;107938;1259;72328;-70
2023/02/12 02:20:46;;;;;;;5.50;3.60;;;;;;;3.98;69.51;100689.26;108071;1256;61567;-71
2023/02/12 02:23:56;;;;;;;5.40;4.00;;;;;;;3.96;69.14;100692.92;108061;1254;61483;-70
2023/02/12 02:26:39;;;;;;;5.20;3.70;;;;;;;3.96;68.95;100710.70;108051;1254;75634;-73
2023/02/12 02:29:26;;;;;;;4.90;3.40;;;;;;;3.94;68.88;100714.64;108021;1254;72952;-71
2023/02/12 02:32:24;;;;;;;5.00;3.10;;;;;;;3.92;68.85;100725.02;108043;1254;73312;-75
2023/02/12 02:35:00;;;;;;;4.90;2.50;;;;;;;3.80;68.85;100730.29;108041;1254;62804;-71
2023/02/12 02:37:38;;;;;;;4.90;3.10;;;;;;;3.71;68.94;100736.55;108069;1254;61093;-70
2023/02/12 02:40:19;;;;;;;4.30;2.80;;;;;;;3.60;68.95;100736.45;108090;1254;75093;-72
2023/02/12 02:42:51;;;;;;;4.10;2.30;;;;;;;3.51;68.74;100747.67;107965;1256;73945;-71
2023/02/12 02:45:35;;;;;;;3.30;1.90;;;;;;;3.45;68.36;100750.36;107959;1257;73840;-73
2023/02/12 02:48:06;;;;;;;3.70;2.20;;;;;;;3.41;67.78;100757.59;108017;1256;61144;-76
2023/02/12 02:50:37;;;;;;;4.00;2.30;;;;;;;3.40;67.63;100766.02;108015;1257;63146;-75
2023/02/12 02:53:09;;;;;;;3.80;2.60;;;;;;;3.40;67.77;100778.69;108139;1255;74900;-70
2023/02/12 02:55:41;;;;;;;3.10;1.80;;;;;;;3.41;68.00;100781.23;107798;1256;73101;-70
2023/02/12 02:58:13;;;;;;;;;;;;;;;3.36;67.71;100804.08;107978;1255;71191;-75
2023/02/12 03:00:46;;;;;;;4.30;2.20;;;;;;;3.33;67.15;100795.17;108023;1257;61640;-69
2023/02/12 03:03:14;;;;;;;2.90;1.60;;;;;;;3.29;66.98;100818.81;107966;1257;61762;-71
2023/02/12 03:05:46;;;;;;;3.10;1.40;;;;;;;3.21;66.45;100834.84;108025;1257;73820;-70
2023/02/12 03:08:22;;;;;;;2.00;1.20;;;;;;;3.14;65.86;100846.56;108082;1257;73099;-72
2023/02/12 03:10:59;;;;;;;1.80;0.90;;;;;;;3.04;65.44;100840.22;107873;1254;150313;-73
2023/02/12 03:13:35;;;;;;;2.40;1.10;;;;;;;2.95;64.79;100849.81;108066;1254;62141;-70
2023/02/12 03:16:08;;;;;;;1.60;0.90;;;;;;;2.89;64.46;100853.66;107988;1256;61505;-70
2023/02/12 03:18:43;;;;;;;2.50;0.80;;;;;;;2.81;64.06;100871.26;108030;1254;74972;-71
2023/02/12 03:21:13;;;;;;;2.20;1.00;;;;;;;2.76;63.53;100880.52;108054;1257;73507;-72
2023/02/12 03:23:53;;;;;;;1.60;0.80;;;;;;;2.72;63.24;100891.95;108049;1254;73899;-70
2023/02/12 03:26:24;;;;;;;2.80;0.80;;;;;;;2.67;63.07;100892.83;108088;1254;61206;-70
2023/02/12 03:28:53;;;;;;;2.00;0.80;;;;;;;2.64;62.87;100896.47;107944;1256;61463;-71
2023/02/12 03:31:24;;;;;;;1.70;0.80;;;;;;;2.62;62.68;100907.98;108032;1254;74732;-71
2023/02/12 03:34:15;;;;;;;2.90;0.90;;;;;;;2.60;62.85;100912.75;108119;1254;72434;-73
2023/02/12 03:37:04;;;;;;;2.00;0.90;;;;;;;2.61;62.90;100916.91;108082;1254;73169;-69
2023/02/12 03:39:48;;;;;;;3.20;1.20;;;;;;;2.62;63.18;100924.05;108068;1254;62287;-70
2023/02/12 03:42:40;;;;;;;2.60;1.20;;;;;;;2.63;63.42;100935.61;108058;1254;61231;-70
2023/02/12 03:45:21;;;;;;;3.10;1.30;;;;;;;2.64;63.78;100945.92;108083;1257;75750;-73
2023/02/12 03:48:08;;;;;;;2.60;1.20;;;;;;;2.64;63.86;100952.83;108155;1254;70811;-70
2023/02/12 03:50:45;;;;;;;8.60;1.30;;;;;;;2.66;63.73;100956.48;107922;1254;73597;-68
2023/02/12 03:53:14;;;;;;;3.40;1.40;;;;;;;2.69;64.00;100968.46;107986;1256;60558;-73
2023/02/12 03:55:44;;;;;;;3.00;1.30;;;;;;;2.68;63.28;100976.70;108092;1254;61189;-70
2023/02/12 03:58:16;;;;;;;2.90;1.10;;;;;;;2.66;62.94;100975.39;108114;1254;73788;-69
2023/02/12 04:00:44;;;;;;;3.50;1.30;;;;;;;2.64;62.48;100983.83;108055;1256;73074;-69
2023/02/12 04:03:13;;;;;;;2.30;1.10;;;;;;;2.60;62.13;100992.11;107803;1256;73776;-73
2023/02/12 04:05:41;;;;;;;3.20;1.40;;;;;;;2.54;61.54;101006.16;107863;1256;62162;-72
2023/02/12 04:08:10;;;;;;;3.90;1.50;;;;;;;2.51;61.09;101001.23;108144;1257;62172;-70
2023/02/12 04:10:46;;;;;;;3.60;1.50;;;;;;;2.49;60.85;101008.23;107803;1257;74549;-74
2023/02/12 04:13:20;;;;;;;3.60;1.50;;;;;;;2.45;60.58;101011.17;108135;1254;73884;-72
2023/02/12 04:15:57;;;;;;;4.60;2.20;;;;;;;2.40;60.21;101023.45;108120;1256;73387;-69
2023/02/12 04:18:39;;;;;;;3.30;1.30;;;;;;;2.35;59.89;101038.23;107924;1257;62036;-71
2023/02/12 04:21:38;;;;;;;2.00;0.90;;;;;;;2.28;59.62;101042.45;108119;1255;61135;-70
2023/02/12 04:24:38;;;;;;;3.00;1.00;;;;;;;2.19;59.26;101047.48;108137;1254;74497;-70
2023/02/12 04:27:25;;;;;;;2.60;1.00;;;;;;;2.14;59.08;101056.73;108200;1254;72963;-70
2023/02/12 04:29:57;;;;;;;2.30;0.90;;;;;;;2.08;59.24;101073.19;108056;1256;73980;-69
2023/02/12 04:32:38;;;;;;;2.10;1.00;;;;;;;2.04;59.36;101083.59;108093;1256;61517;-70
2023/02/12 04:35:27;;;;;;;3.00;1.10;;;;;;;2.00;59.65;101090.77;108089;1256;61112;-69
2023/02/12 04:38:09;;;;;;;2.60;1.20;;;;;;;1.94;59.78;101091.45;108020;1254;74569;-69
2023/02/12 04:40:38;;;;;;;;;;;;;;;1.93;59.87;101098.64;108108;1254;73707;-70
2023/02/12 04:43:06;;;;;;;3.20;1.30;;;;;;;1.93;59.99;101097.91;108124;1254;73950;-68
2023/02/12 04:45:35;;;;;;;4.10;1.60;;;;;;;1.92;60.08;101103.30;108147;1254;61892;-69
2023/02/12 04:48:04;;;;;;;3.00;1.20;;;;;;;1.89;60.09;101106.60;107887;1256;61162;-69
2023/02/12 04:50:41;;;;;;;4.10;1.30;;;;;;;1.83;59.82;101109.94;108063;1256;73893;-69
2023/02/12 04:53:09;;;;;;;3.00;1.20;;;;;;;1.81;59.36;101107.76;108098;1254;72205;-70
2023/02/12 04:55:38;;;;;;;3.30;1.00;;;;;;;1.76;58.79;101116.98;108067;1259;73821;-69
2023/02/12 04:58:06;;;;;;;3.50;1.30;;;;;;;1.72;58.57;101124.73;108106;1254;62946;-69
2023/02/12 05:00:35;;;;;;;2.40;1.10;;;;;;;1.69;58.53;101132.61;108025;1257;60711;-70
2023/02/12 05:03:04;;;;;;;2.20;0.90;;;;;;;1.61;57.94;101143.50;108176;1256;76012;-74
2023/02/12 05:05:34;;;;;;;3.20;1.10;;;;;;;1.51;56.86;101128.77;108181;1254;73974;-69
2023/02/12 05:08:02;;;;;;;2.30;0.90;;;;;;;1.46;56.53;101147.06;108075;1255;71705;-71
2023/02/12 05:10:31;;;;;;;3.60;1.20;;;;;;;1.39;56.05;101158.23;108132;1257;62407;-71
2023/02/12 05:13:05;;;;;;;3.40;1.30;;;;;;;1.37;56.09;101164.77;108139;1255;60544;-70
2023/02/12 05:15:38;;;;;;;2.80;1.10;;;;;;;1.37;55.58;101182.58;108056;1254;75391;-70
2023/02/12 05:18:06;;;;;;;2.70;0.90;;;;;;;1.24;55.14;101185.31;108103;1254;72281;-70
2023/02/12 05:20:36;;;;;;;3.00;1.00;;;;;;;1.18;54.55;101185.83;108085;1259;72772;-70
2023/02/12 05:23:05;;;;;;;2.90;1.00;;;;;;;1.19;54.43;101193.29;108050;1257;61073;-72
2023/02/12 05:25:33;;;;;;;2.70;1.10;;;;;;;1.11;54.11;101197.30;108144;1257;62887;-69
2023/02/12 05:28:02;;;;;;;2.10;0.90;;;;;;;1.06;53.86;101203.67;108107;1257;74702;-70
2023/02/12 05:30:30;;;;;;;1.70;0.90;;;;;;;1.05;53.77;101208.37;108154;1259;74225;-69
2023/02/12 05:32:59;;;;;;;3.30;1.30;;;;;;;1.00;53.83;101223.91;108082;1254;73870;-69
2023/02/12 05:35:27;;;;;;;3.10;1.00;;;;;;;0.96;53.79;101221.02;108078;1254;62391;-68
2023/02/12 05:37:56;;;;;;;3.20;1.10;;;;;;;0.92;53.70;101230.02;108201;1256;61165;-68
2023/02/12 05:40:24;;;;;;;4.40;1.30;;;;;;;0.90;53.74;101231.33;108157;1256;75860;-69
2023/02/12 05:42:53;;;;;;;1.90;0.90;;;;;;;0.99;53.52;101235.88;108000;1256;72516;-68
2023/02/12 05:45:26;;;;;;;3.20;1.00;;;;;;;1.06;53.19;101239.14;108114;1254;72572;-68
2023/02/12 05:47:55;;;;;;;2.90;1.10;;;;;;;1.07;53.33;101242.81;108093;1255;61247;-69
2023/02/12 05:50:24;;;;;;;2.70;1.00;;;;;;;1.07;52.91;101253.37;108166;1254;61335;-70
2023/02/12 05:53:00;;;;;;;3.10;0.90;;;;;;;1.10;53.27;101258.48;107959;1256;74941;-69
2023/02/12 05:55:28;;;;;;;4.40;1.30;;;;;;;1.12;53.28;101265.11;108040;1256;72245;-69
2023/02/12 05:57:57;;;;;;;3.70;1.10;;;;;;;1.17;53.29;101267.38;107960;1257;72537;-69
2023/02/12 06:00:26;;;;;;;2.80;1.20;;;;;;;1.25;53.27;101269.77;107926;1255;61101;-69
2023/02/12 06:02:54;;;;;;;4.00;1.10;;;;;;;1.32;53.23;101265.40;108081;1254;61143;-70
2023/02/12 06:05:23;;;;;;;4.50;1.50;;;;;;;1.42;53.22;101263.44;108129;1254;73881;-70
2023/02/12 06:07:52;;;;;;;2.90;1.20;;;;;;;1.48;53.36;101277.19;108099;1254;72431;-70
2023/02/12 06:10:20;;;;;;;2.80;1.30;;;;;;;1.58;53.52;101285.73;108068;1254;73246;-69
2023/02/12 06:12:53;;;;;;;3.40;1.30;;;;;;;1.66;53.45;101299.69;108116;1254;61155;-70
2023/02/12 06:15:21;;;;;;;2.50;1.10;;;;;;;1.74;53.58;101294.88;108050;1254;61291;-69
2023/02/12 06:17:50;;;;;;;5.30;1.50;;;;;;;1.83;53.88;101300.51;107986;1256;74528;-70
2023/02/12 06:20:19;;;;;;;3.20;1.40;;;;;;;1.90;53.77;101311.51;108052;1254;71849;-71
2023/02/12 06:22:47;;;;;;;2.80;1.30;;;;;;;1.94;53.66;101314.13;108154;1254;71646;-69
2023/02/12 06:25:16;;;;;;;5.10;1.40;;;;;;;1.94;53.55;101317.33;108059;1257;61248;-70
2023/02/12 06:27:45;;;;;;;3.60;1.40;;;;;;;1.88;53.85;101315.66;108197;1254;61180;-70
2023/02/12 06:30:14;;;;;;;5.10;1.70;;;;;;;1.92;54.23;101317.21;108126;1256;73765;-69
2023/02/12 06:32:43;;;;;;;2.40;1.10;;;;;;;1.99;54.58;101326.16;108096;1256;73990;-68
2023/02/12 06:35:11;;;;;;;3.50;1.40;;;;;;;2.07;54.58;101324.11;108042;1254;71568;-69
2023/02/12 06:37:39;;;;;;;2.90;1.20;;;;;;;2.12;54.73;101323.40;108083;1254;61359;-69
2023/02/12 06:40:08;;;;;;;4.00;1.00;;;;;;;2.15;54.11;101322.60;108083;1256;61487;-68
2023/02/12 06:42:36;;;;;;;2.60;1.20;;;;;;;2.15;53.29;101330.30;108105;1254;73583;-69
2023/02/12 06:45:05;;;;;;;3.10;1.00;;;;;;;2.11;52.96;101328.09;108090;1254;73702;-70
2023/02/12 06:47:34;;;;;;;2.70;1.00;;;;;;;2.04;52.07;101348.30;108048;1254;73646;-72
2023/02/12 06:50:02;;;;;;;4.50;1.10;;;;;;;1.95;51.26;101336.84;108110;1254;59237;-70
2023/02/12 06:52:30;;;;;;;3.10;1.20;;;;;;;1.78;51.53;101343.63;108162;1254;61134;-69
2023/02/12 06:54:59;;;;;;;3.70;1.20;;;;;;;1.63;51.49;101356.53;108132;1254;74448;-69
2023/02/12 06:57:28;;;;;;;2.60;1.10;;;;;;;1.59;51.12;101357.11;108045;1256;72070;-69
2023/02/12 06:59:59;;;;;;;4.50;1.40;;;;;;;1.56;50.58;101362.78;108022;1254;70467;-69
2023/02/12 07:02:27;;;;;;;4.60;1.40;;;;;;;1.37;50.71;101372.19;108046;1256;61283;-69
2023/02/12 07:04:56;;;;;;;4.00;1.20;;;;;;;1.32;50.86;101369.80;108027;1255;61134;-69
2023/02/12 07:07:24;;;;;;;6.30;1.30;;;;;;;1.29;50.45;101365.79;108126;1254;75678;-69
2023/02/12 07:09:52;;;;;;;2.70;1.10;;;;;;;1.32;51.09;101366.98;108056;1254;71864;-70
2023/02/12 07:12:26;;;;;;;4.20;1.10;;;;;;;1.38;50.84;101373.81;107864;1255;71843;-69
2023/02/12 07:14:55;;;;;;;2.70;1.00;;;;;;;1.44;50.86;101376.67;108089;1254;62042;-72
2023/02/12 07:17:23;;;;;;;5.30;1.40;;;;;;;1.51;50.61;101377.04;107877;1256;61333;-69
2023/02/12 07:19:52;;;;;;;5.70;1.20;;;;;;;1.57;50.18;101392.05;108130;1254;74491;-70
2023/02/12 07:22:21;;;;;;;4.60;1.20;;;;;;;1.76;50.06;101393.32;107986;1255;72704;-68
2023/02/12 07:24:49;;;;;;;3.50;1.20;;;;;;;1.76;50.07;101385.34;107876;1254;73885;-69
2023/02/12 07:27:17;;;;;;;3.20;1.30;;;;;;;1.79;50.14;101395.96;108075;1256;61079;-71
2023/02/12 07:29:46;;;;;;;4.10;1.10;;;;;;;1.83;49.47;101402.21;107904;1254;64261;-69
2023/02/12 07:32:14;;;;;;;2.50;1.20;;;;;;;1.92;49.57;101415.05;108010;1257;72709;-70
2023/02/12 07:34:43;;;;;;;3.30;1.20;;;;;;;2.00;49.58;101420.02;108081;1256;73786;-71
2023/02/12 07:37:12;;;;;;;5.40;1.60;;;;;;;2.06;49.26;101420.23;108063;1257;73649;-69
2023/02/12 07:39:42;;;;;;;3.90;1.70;;;;;;;2.10;48.97;101406.89;108107;1255;61170;-69
2023/02/12 07:42:13;;;;;;;3.70;1.10;;;;;;;2.10;49.53;101415.04;108129;1254;61244;-70
2023/02/12 07:44:45;;;;;;;3.80;1.30;;;;;;;2.10;49.43;101418.37;108057;1256;73374;-71
2023/02/12 07:47:14;;;;;;;4.00;1.00;;;;;;;2.12;49.93;101431.99;108113;1254;73767;-69
2023/02/12 07:49:45;;;;;;;3.90;1.20;;;;;;;2.18;49.98;101426.80;107785;1254;72812;-72
2023/02/12 07:52:15;;;;;;;2.40;1.10;;;;;;;2.21;49.73;101417.27;109216;1254;59957;-68
2023/02/12 07:54:44;;;;;;;2.70;0.90;;;;;;;2.19;49.31;101437.70;108622;1254;61376;-67
2023/02/12 07:57:13;;;;;;;3.60;1.20;;;;;;;2.15;49.13;101444.55;108051;1255;75496;-68
2023/02/12 07:59:41;;;;;;;3.50;1.30;;;;;;;2.16;49.11;101447.17;107848;1254;74014;-69
2023/02/12 08:02:10;;;;;;;3.30;1.10;;;;;;;2.19;48.72;101455.77;108139;1254;72936;-70
2023/02/12 08:04:40;;;;;;;2.60;0.90;;;;;;;2.20;48.58;101451.44;108144;1254;61241;-68
2023/02/12 08:07:08;;;;;;;4.80;1.20;;;;;;;2.18;48.36;101451.81;108138;1254;60919;-69
2023/02/12 08:09:37;;;;;;;3.50;1.40;;;;;;;2.17;48.36;101443.77;108186;1256;74901;-69
2023/02/12 08:12:06;;;;;;;2.60;1.20;;;;;;;2.21;48.81;101452.76;108157;1254;72309;-69
2023/02/12 08:28:01;;;;;;;3.50;1.30;;;;;;;2.33;47.96;101469.09;105732;1282;614639;-68
2023/02/12 08:30:30;;;;;;;2.90;1.20;;;;;;;2.58;46.67;101471.10;107506;1261;116201;-68
2023/02/12 08:33:00;;;;;;;5.00;1.20;;;;;;;2.53;47.06;101475.87;107593;1262;61626;-71
2023/02/12 08:35:29;;;;;;;2.70;1.10;;;;;;;2.51;47.25;101478.25;107513;1262;72196;-69
2023/02/12 08:37:58;;;;;;;2.60;1.00;;;;;;;2.51;47.77;101480.66;107481;1262;72142;-70
2023/02/12 08:40:26;;;;;;;3.30;1.10;;;;;;;2.54;47.55;101485.73;107485;1262;73816;-71
2023/02/12 08:42:55;;;;;;;2.40;1.00;;;;;;;2.56;47.47;101492.04;107505;1262;59376;-69
2023/02/12 08:45:23;;;;;;;3.60;1.00;;;;;;;2.60;47.67;101490.81;107521;1262;59709;-70
2023/02/12 08:47:52;;;;;;;4.20;1.40;;;;;;;2.68;47.75;101502.08;107588;1261;73093;-69
2023/02/12 08:50:20;;;;;;;7.80;1.60;;;;;;;2.75;47.66;101488.02;107623;1261;70702;-67
2023/02/12 08:52:49;;;;;;;5.60;2.10;;;;;;;2.84;47.45;101499.17;107546;1263;72974;-69
2023/02/12 08:55:20;;;;;;;4.90;1.90;;;;;;;2.88;47.00;101516.60;107629;1261;60511;-72
2023/02/12 08:57:48;;;;;;;5.80;2.20;;;;;;;2.89;46.78;101516.13;107587;1262;61105;-69
2023/02/12 09:00:18;;;;;;;3.70;1.60;;;;;;;2.91;46.69;101507.23;107571;1261;71613;-70
2023/02/12 09:02:47;;;;;;;5.30;1.40;;;;;;;2.92;46.85;101528.88;107609;1262;71869;-69
2023/02/12 09:05:15;;;;;;;3.40;1.20;;;;;;;2.95;46.39;101542.08;107643;1262;72880;-68
2023/02/12 09:07:45;;;;;;;2.20;1.00;;;;;;;2.97;46.17;101525.04;107569;1261;59823;-68
2023/02/12 09:10:14;;;;;;;2.90;1.30;;;;;;;2.98;46.34;101530.98;107587;1263;59625;-68
2023/02/12 09:12:43;;;;;;;2.90;1.20;;;;;;;3.09;45.87;101524.67;107554;1262;73424;-69
2023/02/12 09:15:12;;;;;;;3.10;1.10;;;;;;;3.09;44.49;101543.67;107570;1262;73648;-69
2023/02/12 09:17:42;;;;;;;3.30;1.20;;;;;;;3.02;44.46;101543.75;107539;1263;72898;-71
2023/02/12 09:20:11;;;;;;;3.80;1.20;;;;;;;2.96;44.54;101545.13;107483;1262;59612;-70
2023/02/12 09:22:39;;;;;;;2.50;1.20;;;;;;;3.00;44.98;101545.71;107541;1262;61082;-67
2023/02/12 09:25:09;;;;;;;3.40;1.40;;;;;;;3.09;45.34;101541.88;107482;1262;73883;-71
2023/02/12 09:27:37;;;;;;;3.60;1.50;;;;;;;3.18;45.26;101554.91;107530;1262;72090;-70
2023/02/12 09:30:07;;;;;;;2.60;1.30;;;;;;;3.18;45.18;101543.10;107519;1262;72901;-69
2023/02/12 09:32:36;;;;;;;3.60;1.50;;;;;;;3.14;45.47;101534.92;107599;1262;59628;-71
2023/02/12 09:35:06;;;;;;;3.10;1.40;;;;;;;3.21;45.76;101549.04;108023;1260;61209;-70
2023/02/12 09:37:43;;;;;;;3.30;1.00;;;;;;;3.30;45.34;101544.07;107797;1256;72920;-69
2023/02/12 09:40:34;;;;;;;3.60;1.20;;;;;;;3.36;45.03;101538.58;108005;1256;72523;-68
2023/02/12 09:43:09;;;;;;;3.20;1.30;;;;;;;3.40;44.90;101546.09;107905;1257;72640;-67
2023/02/12 09:46:02;;;;;;;2.50;1.10;;;;;;;3.37;45.13;101554.10;107861;1258;60789;-71
2023/02/12 09:48:52;;;;;;;3.20;1.30;;;;;;;3.33;45.08;101552.58;107749;1258;61324;-68
2023/02/12 09:51:21;;;;;;;3.40;1.10;;;;;;;3.31;45.03;101543.46;107693;1258;74503;-69
2023/02/12 09:53:50;;;;;;;3.50;1.20;;;;;;;3.32;44.39;101541.00;107673;1259;73964;-71
2023/02/12 09:56:20;;;;;;;4.20;1.30;;;;;;;3.31;44.26;101547.89;107690;1263;72701;-71
2023/02/12 09:58:59;;;;;;;3.20;1.10;;;;;;;3.25;43.94;101547.10;107719;1259;61189;-70
2023/02/12 10:01:28;;;;;;;2.50;0.80;;;;;;;3.24;44.09;101537.05;107723;1259;59532;-71
2023/02/12 10:04:00;;;;;;;3.30;1.10;;;;;;;3.25;43.82;101539.05;107694;1258;72996;-70
2023/02/12 10:06:36;;;;;;;3.00;0.90;;;;;;;3.29;43.83;101552.66;107696;1257;72908;-72
2023/02/12 10:09:05;;;;;;;1.50;0.80;;;;;;;3.32;43.59;101547.58;107687;1258;72006;-70
2023/02/12 10:11:55;;;;;;;3.60;1.20;;;;;;;3.32;43.39;101541.80;107778;1259;59932;-68
2023/02/12 10:14:44;;;;;;;3.90;1.10;;;;;;;3.33;43.24;101533.17;107747;1259;60983;-72
2023/02/12 10:17:32;;;;;;;2.20;0.90;;;;;;;3.33;42.96;101533.55;107810;1258;74269;-71
2023/02/12 10:20:14;;;;;;;3.40;1.40;;;;;;;3.37;43.23;101534.64;107718;1259;72791;-69
2023/02/12 10:22:53;;;;;;;3.60;1.40;;;;;;;3.42;42.80;101537.38;107680;1259;72854;-69
2023/02/12 10:25:29;;;;;;;3.00;1.00;;;;;;;3.45;42.30;101547.14;107735;1259;59517;-72
2023/02/12 10:39:26;;;;;;;3.40;1.20;;;;;;;3.63;41.27;101547.09;105909;1282;611896;-69
2023/02/12 10:42:10;;;;;;;2.10;0.90;;;;;;;3.95;40.72;101540.92;107284;1272;126773;-69
2023/02/12 10:44:39;;;;;;;3.10;1.20;;;;;;;3.97;41.26;101539.56;107471;1264;60839;-71
2023/02/12 10:47:21;;;;;;;2.60;1.20;;;;;;;4.05;40.86;101547.95;107452;1264;73266;-70
2023/02/12 10:49:55;;;;;;;4.80;1.50;;;;;;;4.11;40.69;101545.89;107489;1264;73658;-69
2023/02/12 10:52:29;;;;;;;2.30;1.10;;;;;;;4.16;40.60;101542.94;107466;1264;73937;-71
2023/02/12 10:54:57;;;;;;;3.50;1.20;;;;;;;4.19;40.34;101552.36;107385;1263;59502;-67
2023/02/12 10:57:28;;;;;;;2.50;0.90;;;;;;;4.24;40.41;101555.36;107437;1263;59670;-68
2023/02/12 11:00:24;;;;;;;3.00;1.00;;;;;;;4.31;40.33;101561.83;107388;1267;75844;-70
2023/02/12 11:03:00;;;;;;;3.70;1.10;;;;;;;4.38;39.58;101571.23;107389;1265;74487;-69
2023/02/12 11:05:30;;;;;;;2.00;0.90;;;;;;;4.39;39.77;101569.17;107595;1263;72558;-68
2023/02/12 11:07:58;;;;;;;3.70;1.10;;;;;;;4.40;39.75;101580.33;107615;1263;59817;-70
2023/02/12 11:10:27;;;;;;;3.70;1.10;;;;;;;4.40;39.46;101581.18;107617;1262;61312;-72
2023/02/12 11:12:57;;;;;;;3.10;1.20;;;;;;;4.35;38.72;101583.21;107625;1262;72513;-70
2023/02/12 11:15:30;;;;;;;2.60;1.00;;;;;;;4.31;38.75;101590.22;107635;1262;72855;-70
2023/02/12 11:18:00;;;;;;;4.70;1.10;;;;;;;4.28;38.19;101591.46;107583;1262;73306;-70
2023/02/12 11:20:40;;;;;;;3.50;1.60;;;;;;;4.25;37.72;101593.30;107482;1267;59781;-70
2023/02/12 11:36:58;;;;;;;3.20;1.20;;;;;;;4.34;37.86;101588.49;98208;1283;10001861;-70
2023/02/12 11:39:27;;;;;;;3.30;0.90;;;;;;;4.70;37.40;101585.73;107191;1264;164357;-69
2023/02/12 11:41:58;;;;;;;2.00;0.90;;;;;;;4.69;37.54;101579.26;107257;1264;73350;-71
2023/02/12 11:44:35;;;;;;;3.50;1.20;;;;;;;4.71;37.96;101577.48;107342;1267;74148;-69
2023/02/12 11:59:41;;;;;;;3.20;1.00;;;;;;;4.78;37.15;101592.48;98709;1279;10001480;-70
2023/02/12 12:02:24;;;;;;;2.00;0.80;;;;;;;4.87;35.81;101587.60;107721;1254;180874;-67
2023/02/12 12:04:54;;;;;;;2.40;1.10;;;;;;;4.74;34.88;101585.00;107939;1254;73323;-70
2023/02/12 12:07:27;;;;;;;2.50;1.00;;;;;;;4.66;35.26;101585.04;107889;1259;71152;-69
2023/02/12 12:10:14;;;;;;;3.10;1.00;;;;;;;4.63;36.02;101591.17;108043;1257;72942;-69
2023/02/12 12:12:47;;;;;;;2.90;0.90;;;;;;;4.62;36.20;101589.54;108054;1254;60299;-71
2023/02/12 12:21:31;;;;;;;3.40;1.50;;;;;;;4.69;37.21;101583.89;108068;1254;73705;-70
2023/02/12 12:24:03;;;;;;;2.30;1.10;;;;;;;4.72;36.03;101583.91;108043;1254;73613;-70
2023/02/12 12:26:33;;;;;;;2.50;0.90;;;;;;;4.69;35.36;101587.55;108161;1253;59491;-69
2023/02/12 12:29:05;;;;;;;3.30;1.20;;;;;;;4.68;35.19;101581.52;108237;1254;62190;-68
2023/02/12 12:31:36;;;;;;;2.00;0.90;;;;;;;4.67;34.92;101586.31;108099;1252;74301;-68
2023/02/12 12:34:15;;;;;;;4.10;1.30;;;;;;;4.64;35.01;101594.80;108123;1253;72109;-69
2023/02/12 12:36:50;;;;;;;2.40;1.10;;;;;;;4.62;35.47;101596.05;108020;1254;73904;-69
2023/02/12 12:39:41;;;;;;;2.50;0.90;;;;;;;4.64;35.86;101593.53;108063;1252;59295;-69
2023/02/12 12:42:30;;;;;;;3.20;0.80;;;;;;;4.65;35.70;101595.88;108119;1253;60345;-70
2023/02/12 12:45:08;;;;;;;3.80;0.80;;;;;;;4.65;35.88;101598.56;108210;1253;72207;-70
2023/02/12 12:47:57;;;;;;;3.30;0.90;;;;;;;4.64;35.33;101602.73;108116;1253;73083;-71
2023/02/12 12:50:49;;;;;;;4.50;0.80;;;;;;;4.61;35.12;101607.98;108016;1254;72629;-69